logo tempoitalia

Diretta Meteo Barstow-Daggett, Stati Uniti (USA)domenica 30 agosto ore 22:50

Mappa
Sereno 30 °C Sereno 24 Ore: T.min 25 T.max 39
Ponente Ovest/Nord-Ovest Km/h 18.5 Punto di rugiada: 5 °C Umidità: 20% Visibilità: 10 Km
Il sole sorge alle: 06:18 Il sole tramonta alle: 19:16
30 Agosto 2026 22:50 tempo osservato: Sereno Sereno 30 20 1011 vento: Nord O/NO 18.5
30 Agosto 2026 21:50 tempo osservato: Sereno Sereno 30 22 1011 vento: Nord O 27.8
30 Agosto 2026 20:50 tempo osservato: Sereno Sereno 31 23 1010 vento: Nord O 29.6
30 Agosto 2026 19:50 tempo osservato: Sereno Sereno 33 24 1009 vento: Nord O 37
30 Agosto 2026 18:50 tempo osservato: Sereno Sereno 36 18 1009 vento: Nord O/SO 27.8
30 Agosto 2026 17:50 tempo osservato: Sereno Sereno 37 15 1009 vento: Nord O 29.6
30 Agosto 2026 16:50 tempo osservato: Sereno Sereno 38 14 1008 vento: Nord O/SO 29.6
30 Agosto 2026 15:50 tempo osservato: Sereno Sereno 39 13 1009 vento: Nord S 27.8
30 Agosto 2026 14:50 tempo osservato: Poco Nuvoloso Poco Nuvoloso 38 14 1010 vento: Nord N/NO 18.5
30 Agosto 2026 13:50 tempo osservato: Sereno Sereno 37 14 1011 vento: Nord O/NO 22.2
30 Agosto 2026 12:50 tempo osservato: Sereno Sereno 37 17 1011 vento: Nord O/NO 20.3
30 Agosto 2026 11:50 tempo osservato: Sereno Sereno 35 19 1012 vento: Nord NO 24
30 Agosto 2026 10:50 tempo osservato: Sereno Sereno 33 22 1012 vento: Nord NO 22.2
30 Agosto 2026 09:50 tempo osservato: Sereno Sereno 32 24 1013 vento: Nord O/NO 22.2
30 Agosto 2026 08:50 tempo osservato: Sereno Sereno 29 28 1013 vento: Nord O 22.2
30 Agosto 2026 07:50 tempo osservato: Sereno Sereno 27 32 1013 vento: Nord O/NO 16.7
30 Agosto 2026 06:50 tempo osservato: Sereno Sereno 25 38 1012 vento: Nord NO 9.3
30 Agosto 2026 05:50 tempo osservato: Sereno Sereno 26 34 1012 vento: Nord O 11.1
30 Agosto 2026 04:50 tempo osservato: Sereno Sereno 27 32 1012 vento: Nord O 14.8
30 Agosto 2026 03:50 tempo osservato: Sereno Sereno 28 30 1011 vento: Nord O 24
30 Agosto 2026 02:50 tempo osservato: Sereno Sereno 29 28 1011 vento: Nord O 29.6
30 Agosto 2026 01:50 tempo osservato: Sereno Sereno 29 32 1011 vento: Nord O 27.8
30 Agosto 2026 00:50 tempo osservato: Sereno Sereno 29 32 1011 vento: Nord O 24
29 Agosto 2026 23:50 tempo osservato: Sereno Sereno 30 30 1012 vento: Nord O 29.6